Aérodrome :
LOGIN :

S'inscrire | Disclaimer

   EN    FR    IT 

 










Légende :    VFR   VFR Marginal   IFR   IFR Intensif   IFR Très Intensif
Visi : 
Plafond : 
>= 8 km
>= 3000ft
5 à 8 km
1000 à 3000 ft
1500m à 5 km
500 à 1000 ft
800 à 1500m
200 à 500 ft
< 800m
< 200 ft
Symboles :   Orages  Brouillard  Fortes neiges  Fortes précipitations  Vent > 20 kt
SIGMETs :   Divers  Orages  Givrage  Turbulence  Onde Orograph.  Cendres Volcan.







- Altitude de l'aérodrome : 1674 ft
- Code IATA : BRN


LSZB - Bern Belp

DERNIER METAR :
  • 172220Z AUTO VRB01KT 9999 -RA BKN033 03/02 Q1021

METARs EXPIRÉS :
  • 172150Z AUTO 29003KT 260V340 9999 -RA FEW011 SCT031 BKN050 03/02 Q1021
  • 172120Z AUTO 31007KT 9999 -RA SCT014 SCT025 03/02 Q1020
  • 172050Z AUTO 29007KT 9999 -RA FEW016 BKN027 04/01 Q1020
  • 172020Z AUTO 29008KT 9999 -RA FEW025 BKN030 04/02 Q1020
  • 171950Z AUTO 30005KT 270V330 9999 -RA FEW036 BKN046 05/02 Q1019

TAF AMD TAF LSZB
Valide du 17 à 16h jusqu'au 18 à 00h UTC


171612Z 1716/1724 VRB03KT 8000 -RA FEW010 BKN030
TEMPO 1716/1718 RA
TEMPO 1716/1719 29010KT
TEMPO 1719/1724 4000 SHRASN BKN008
ATIS : +41 22 417 40 76
Pas de NOTAMs connus pour ce terrain.



MET'MAP, la Météo Aéronautique d'un coup d'oeil ! - Copyright ORBIFLY Décembre 2007 - Disclaimer

ORBIFLY MET'MAP TEAM :

Programmation & Développement : Alexandra Zaïnal
Conception & Développement : Baudouin d'Aumeries
Co-Programmation & Développement : Marc-Olivier Méhu
Soutien technique & logistique : Manuel Goepfert

Contact : metmap@orbifly.com




SOURCES & CREDITS :

   NOAA